Time;durP1;ratioP1;P1;durP2;ratioP2;P2;SDS_P1;SDS_P2;PMS_P1;PMS_P2;Temp;Humidity;BMP_temperature;BMP_pressure;BME280_temperature;BME280_humidity;BME280_pressure;Samples;Min_cycle;Max_cycle;Signal;HPM_P1;HPM_P2
2022/05/25 00:00:08;;;;;;;7.75;4.63;;;;;;;8.85;100.00;101113.75;5038539;28;20125;-90
2022/05/25 00:02:33;;;;;;;10.40;5.13;;;;;;;8.90;100.00;101119.19;5048641;28;20032;-91
2022/05/25 00:04:58;;;;;;;7.53;4.33;;;;;;;8.84;100.00;101126.28;5033112;28;20533;-89
2022/05/25 00:07:24;;;;;;;7.77;4.90;;;;;;;8.79;100.00;101126.19;5044513;28;20032;-89
2022/05/25 00:09:49;;;;;;;5.83;4.37;;;;;;;8.70;100.00;101116.94;5051010;28;20744;-90
2022/05/25 00:12:17;;;;;;;6.13;4.70;;;;;;;8.61;100.00;101103.16;5049743;28;20041;-90
2022/05/25 00:14:42;;;;;;;7.43;4.32;;;;;;;8.64;100.00;101121.38;5047273;28;20107;-92
2022/05/25 00:17:08;;;;;;;7.20;4.50;;;;;;;8.49;100.00;101119.22;5031163;28;20127;-88
2022/05/25 00:22:17;;;;;;;8.40;4.80;;;;;;;8.41;100.00;101127.53;5030636;28;20044;-90
2022/05/25 00:24:42;;;;;;;7.47;4.80;;;;;;;8.38;100.00;101125.38;5031415;28;20017;-90
2022/05/25 00:27:07;;;;;;;6.27;5.10;;;;;;;8.42;100.00;101130.00;5218537;22;20380;-90
2022/05/25 00:29:33;;;;;;;6.97;5.05;;;;;;;8.40;100.00;101126.75;5050141;28;20654;-89
2022/05/25 00:31:59;;;;;;;8.13;5.67;;;;;;;8.39;100.00;101129.66;5048915;28;20017;-88
2022/05/25 00:34:24;;;;;;;9.90;5.77;;;;;;;8.26;100.00;101118.19;5046585;28;20028;-90
2022/05/25 00:36:49;;;;;;;6.20;5.13;;;;;;;8.34;100.00;101135.69;5049699;28;20302;-91
2022/05/25 00:39:15;;;;;;;8.93;5.50;;;;;;;8.29;100.00;101139.06;5050793;28;20027;-91
2022/05/25 00:41:43;;;;;;;8.90;5.00;;;;;;;8.25;100.00;101137.91;5036192;28;20036;-91
2022/05/25 00:44:08;;;;;;;9.27;5.40;;;;;;;8.12;100.00;101119.47;5029089;28;20029;-90
2022/05/25 00:46:36;;;;;;;7.87;5.47;;;;;;;8.11;100.00;101118.69;5029714;28;20028;-89
2022/05/25 00:49:04;;;;;;;8.60;5.97;;;;;;;8.11;100.00;101120.53;5028697;28;20033;-89
2022/05/25 00:51:48;;;;;;;10.43;6.45;;;;;;;8.18;100.00;101123.91;5029237;28;20021;-90
2022/05/25 00:54:23;;;;;;;10.25;6.22;;;;;;;8.17;100.00;101109.72;5031491;28;20056;-89
2022/05/25 00:56:51;;;;;;;10.73;6.93;;;;;;;8.25;100.00;101123.75;5030483;28;20050;-89
2022/05/25 00:59:20;;;;;;;9.15;6.45;;;;;;;8.19;100.00;101134.31;5030848;28;20052;-89
2022/05/25 01:01:45;;;;;;;10.73;6.07;;;;;;;8.14;100.00;101144.88;5030569;28;20036;-88
2022/05/25 01:04:12;;;;;;;7.83;6.30;;;;;;;8.01;100.00;101137.13;5030325;28;20416;-87
2022/05/25 01:07:02;;;;;;;8.82;6.75;;;;;;;8.02;100.00;101152.09;5030259;28;20041;-89
2022/05/25 01:09:50;;;;;;;8.55;6.85;;;;;;;7.91;100.00;101153.72;5013860;28;20053;-87
2022/05/25 01:12:37;;;;;;;9.48;6.63;;;;;;;7.84;100.00;101153.84;5030440;28;20033;-87
2022/05/25 01:15:21;;;;;;;10.32;6.90;;;;;;;7.77;100.00;101160.31;5030128;28;20052;-88
2022/05/25 01:17:57;;;;;;;10.20;6.60;;;;;;;7.79;100.00;101163.56;5031277;28;20061;-88
2022/05/25 01:20:45;;;;;;;12.17;7.50;;;;;;;7.77;100.00;101163.78;5038869;28;20287;-87
2022/05/25 01:23:23;;;;;;;12.85;7.47;;;;;;;7.78;100.00;101159.28;5046370;28;20025;-89
2022/05/25 01:25:54;;;;;;;9.82;6.88;;;;;;;7.73;100.00;101160.78;5065136;28;20232;-88
2022/05/25 01:28:44;;;;;;;11.88;7.13;;;;;;;7.60;100.00;101145.00;5051449;28;20022;-90
2022/05/25 01:31:18;;;;;;;10.45;7.13;;;;;;;7.65;100.00;101153.13;5057816;28;20032;-91
2022/05/25 01:34:13;;;;;;;8.75;6.97;;;;;;;7.63;100.00;101163.22;5057989;28;20106;-90
2022/05/25 01:36:54;;;;;;;12.55;7.75;;;;;;;7.58;100.00;101152.41;5041970;28;20030;-91
2022/05/25 01:39:24;;;;;;;11.80;7.32;;;;;;;7.62;100.00;101164.25;5013018;28;20631;-89
2022/05/25 01:41:56;;;;;;;10.95;7.38;;;;;;;7.64;100.00;101166.69;5034589;28;20033;-90
2022/05/25 01:44:26;;;;;;;13.67;7.60;;;;;;;7.60;100.00;101173.50;5029970;28;20026;-89
2022/05/25 01:47:10;;;;;;;8.77;7.27;;;;;;;7.55;100.00;101179.53;5012475;28;20289;-90
2022/05/25 01:49:45;;;;;;;10.27;7.82;;;;;;;7.52;100.00;101166.66;5029270;28;20172;-90
2022/05/25 01:52:15;;;;;;;13.48;7.70;;;;;;;7.46;100.00;101160.38;5029649;28;20087;-88
2022/05/25 01:54:48;;;;;;;9.30;7.38;;;;;;;7.40;100.00;101155.97;5029573;28;20507;-87
2022/05/25 01:57:15;;;;;;;13.20;7.63;;;;;;;7.49;100.00;101169.78;5030106;28;20473;-88
2022/05/25 01:59:53;;;;;;;11.27;8.25;;;;;;;7.58;100.00;101173.75;5030375;28;20026;-90
2022/05/25 02:05:07;;;;;;;12.60;8.02;;;;;;;7.49;100.00;101167.94;5033047;28;20040;-90
2022/05/25 02:07:47;;;;;;;14.93;8.77;;;;;;;7.55;100.00;101166.19;5033615;28;20021;-89
2022/05/25 02:10:18;;;;;;;15.17;8.13;;;;;;;7.60;100.00;101177.00;5032421;28;20037;-90
2022/05/25 02:13:03;;;;;;;13.97;8.57;;;;;;;7.50;100.00;101156.22;5016888;28;20295;-88
2022/05/25 02:16:11;;;;;;;14.75;8.80;;;;;;;7.63;100.00;101176.56;5019513;28;20034;-89
2022/05/25 02:18:41;;;;;;;11.90;7.97;;;;;;;7.55;100.00;101176.88;5014007;28;20064;-89
2022/05/25 02:21:17;;;;;;;14.95;7.95;;;;;;;7.51;100.00;101167.69;5032682;28;20037;-88
2022/05/25 02:24:07;;;;;;;14.40;9.05;;;;;;;7.52;100.00;101172.00;5032990;28;20117;-88
2022/05/25 02:26:39;;;;;;;13.40;8.70;;;;;;;7.61;100.00;101178.63;5031950;28;20076;-91
2022/05/25 02:29:07;;;;;;;14.10;9.32;;;;;;;7.63;100.00;101178.38;5030736;28;20492;-88
2022/05/25 02:31:38;;;;;;;15.35;9.48;;;;;;;7.57;100.00;101175.63;5043409;28;20045;-88
2022/05/25 02:34:06;;;;;;;13.05;9.85;;;;;;;7.52;100.00;101170.16;5013896;28;20026;-89
2022/05/25 02:36:34;;;;;;;12.93;9.47;;;;;;;7.61;100.00;101189.31;5025658;28;20025;-93
2022/05/25 02:39:03;;;;;;;17.73;9.97;;;;;;;7.58;100.00;101179.09;5033157;28;20708;-91
2022/05/25 02:41:33;;;;;;;12.60;8.95;;;;;;;7.61;100.00;101191.97;5030524;28;20063;-90
2022/05/25 02:44:00;;;;;;;12.55;8.75;;;;;;;7.56;100.00;101199.84;5014497;28;20105;-89
2022/05/25 02:46:25;;;;;;;17.05;9.55;;;;;;;7.53;100.00;101176.28;5034313;28;20476;-92
2022/05/25 02:48:51;;;;;;;15.93;8.40;;;;;;;7.62;100.00;101192.75;5048159;28;20044;-89
2022/05/25 02:51:17;;;;;;;12.30;8.15;;;;;;;7.60;100.00;101201.00;5031297;28;20037;-91
2022/05/25 02:53:45;;;;;;;13.60;7.57;;;;;;;7.56;100.00;101197.16;5032582;28;20560;-89
2022/05/25 02:56:11;;;;;;;10.90;8.30;;;;;;;7.55;100.00;101199.03;5014536;28;20447;-91
2022/05/25 02:58:36;;;;;;;16.10;8.17;;;;;;;7.49;100.00;101180.44;5030218;28;20030;-92
2022/05/25 03:01:02;;;;;;;15.23;7.70;;;;;;;7.60;100.00;101211.69;5033234;28;20508;-91
2022/05/25 03:03:28;;;;;;;9.63;7.05;;;;;;;7.46;100.00;101183.59;5032393;28;20113;-87
2022/05/25 03:05:54;;;;;;;11.05;6.90;;;;;;;7.53;100.00;101202.94;5031591;28;20132;-91
2022/05/25 03:08:20;;;;;;;12.77;7.65;;;;;;;7.41;100.00;101182.41;5032334;28;20502;-91
2022/05/25 03:10:45;;;;;;;11.83;7.00;;;;;;;7.60;100.00;101211.69;5031399;28;20022;-88
2022/05/25 03:13:11;;;;;;;10.73;6.73;;;;;;;7.58;100.00;101211.09;5032379;28;20121;-91
2022/05/25 03:15:37;;;;;;;11.65;6.75;;;;;;;7.57;100.00;101220.13;5028791;28;20172;-88
2022/05/25 03:18:03;;;;;;;9.18;6.75;;;;;;;7.55;100.00;101223.03;5032179;28;20377;-90
2022/05/25 03:20:28;;;;;;;13.30;7.18;;;;;;;7.55;100.00;101223.03;5031783;28;20022;-91
2022/05/25 03:22:54;;;;;;;14.97;6.80;;;;;;;7.50;100.00;101222.06;5031281;28;20018;-89
2022/05/25 03:25:19;;;;;;;10.40;6.57;;;;;;;7.42;100.00;101208.03;5032732;28;20028;-92
2022/05/25 03:27:45;;;;;;;17.03;7.13;;;;;;;7.42;100.00;101194.69;5033746;28;20120;-91
2022/05/25 03:30:13;;;;;;;12.40;6.70;;;;;;;7.48;100.00;101210.84;5032332;28;20021;-91
2022/05/25 03:32:39;;;;;;;13.18;6.85;;;;;;;7.49;100.00;101217.78;5032971;28;20025;-90
2022/05/25 03:35:05;;;;;;;11.27;6.63;;;;;;;7.42;100.00;101208.03;5032691;28;20133;-91
2022/05/25 03:37:30;;;;;;;11.77;6.30;;;;;;;7.46;100.00;101219.06;5032129;28;20436;-91
2022/05/25 03:39:56;;;;;;;13.73;5.63;;;;;;;7.37;100.00;101205.22;5033060;28;20056;-92
2022/05/25 03:42:22;;;;;;;13.67;6.70;;;;;;;7.42;100.00;101216.03;5032772;28;20038;-93
2022/05/25 03:44:48;;;;;;;13.23;7.10;;;;;;;7.44;100.00;101210.47;5045956;28;20058;-89
2022/05/25 03:47:14;;;;;;;9.57;6.03;;;;;;;7.57;100.00;101241.47;5035222;28;20025;-92
2022/05/25 03:49:40;;;;;;;12.73;6.45;;;;;;;7.51;100.00;101240.53;5050705;28;20314;-92
2022/05/25 03:52:05;;;;;;;10.27;5.97;;;;;;;7.43;100.00;101231.00;5054452;28;20013;-93
2022/05/25 03:54:32;;;;;;;13.70;6.55;;;;;;;7.47;100.00;101230.53;5056001;28;20021;-93
2022/05/25 03:56:58;;;;;;;13.17;5.93;;;;;;;7.58;100.00;101245.75;5046547;28;20036;-94
2022/05/25 03:59:24;;;;;;;9.73;5.88;;;;;;;7.42;100.00;101221.38;5058484;28;20029;-93
2022/05/25 04:01:50;;;;;;;9.45;5.82;;;;;;;7.54;100.00;101242.75;5074982;28;20021;-94
2022/05/25 04:04:17;;;;;;;14.35;6.38;;;;;;;7.56;100.00;101235.34;5064728;28;20064;-96
2022/05/25 04:06:43;;;;;;;13.35;5.65;;;;;;;7.59;100.00;101228.72;5042205;28;20104;-92
2022/05/25 04:09:10;;;;;;;11.57;5.73;;;;;;;7.69;100.00;101247.63;5044763;28;20028;-89
2022/05/25 04:11:41;;;;;;;11.07;5.25;;;;;;;7.84;100.00;101260.56;5046390;28;20091;-89
2022/05/25 04:14:06;;;;;;;11.95;5.80;;;;;;;7.87;100.00;101246.75;5016843;28;20033;-95
2022/05/25 04:16:34;;;;;;;12.00;6.20;;;;;;;7.96;100.00;101255.25;5033392;28;20465;-92
2022/05/25 04:19:00;;;;;;;12.27;5.55;;;;;;;8.04;100.00;101257.56;5017500;28;20366;-94
2022/05/25 04:21:26;;;;;;;10.50;5.15;;;;;;;7.98;100.00;101242.50;5033554;28;20040;-96
2022/05/25 04:23:51;;;;;;;7.97;5.23;;;;;;;8.08;100.00;101259.78;5033620;28;20109;-94
2022/05/25 04:26:17;;;;;;;10.53;5.20;;;;;;;8.02;100.00;101251.66;5033993;28;20075;-96
2022/05/25 04:28:42;;;;;;;8.70;5.55;;;;;;;8.06;100.00;101257.34;5033213;28;20064;-92
2022/05/25 04:31:07;;;;;;;12.00;4.87;;;;;;;8.10;100.00;101266.53;5033052;28;20041;-93
2022/05/25 04:33:35;;;;;;;8.37;5.40;;;;;;;8.00;100.00;101251.09;5033693;28;20026;-93
2022/05/25 04:36:00;;;;;;;12.05;5.40;;;;;;;8.16;100.00;101270.94;5031544;28;20540;-95
2022/05/25 04:38:26;;;;;;;11.80;5.53;;;;;;;8.19;100.00;101267.81;5031561;28;20056;-91
2022/05/25 04:40:51;;;;;;;11.00;5.93;;;;;;;8.24;100.00;101269.78;5031419;28;20068;-93
2022/05/25 04:43:21;;;;;;;13.40;5.40;;;;;;;8.23;100.00;101257.47;5033181;28;20052;-94
2022/05/25 04:45:48;;;;;;;11.93;5.30;;;;;;;8.36;100.00;101259.09;5023718;28;20033;-94
2022/05/25 04:48:15;;;;;;;12.73;5.07;;;;;;;8.41;100.00;101269.09;5020042;28;20029;-95
2022/05/25 04:50:43;;;;;;;10.25;5.45;;;;;;;8.53;100.00;101277.13;5030081;28;20036;-94
2022/05/25 04:53:10;;;;;;;13.55;5.63;;;;;;;8.94;100.00;101270.84;5032099;28;20037;-93
2022/05/25 04:58:24;;;;;;;11.53;4.63;;;;;;;11.38;97.08;101269.25;5033183;28;20063;-92
2022/05/25 05:00:53;;;;;;;8.80;4.50;;;;;;;12.34;91.70;101294.53;5051617;28;20303;-93
2022/05/25 05:03:20;;;;;;;7.82;3.38;;;;;;;13.16;84.31;101296.06;5032692;28;20025;-92
2022/05/25 05:05:47;;;;;;;8.23;3.47;;;;;;;13.69;81.59;101301.34;5031967;28;20026;-93
2022/05/25 05:08:12;;;;;;;7.35;3.63;;;;;;;14.17;79.48;101300.28;5031922;28;20025;-92
2022/05/25 05:10:38;;;;;;;12.15;3.75;;;;;;;14.43;76.48;101287.59;5032870;28;20025;-91
2022/05/25 05:13:04;;;;;;;6.93;2.90;;;;;;;14.98;74.30;101297.72;5033509;28;20028;-91
2022/05/25 05:15:38;;;;;;;8.68;3.38;;;;;;;15.29;73.89;101289.47;5231727;22;20053;-91
2022/05/25 05:18:04;;;;;;;9.82;3.15;;;;;;;15.74;72.23;101300.25;5040566;28;20029;-90
2022/05/25 05:20:30;;;;;;;5.13;2.63;;;;;;;15.93;69.42;101286.91;5052419;28;20029;-93
2022/05/25 05:22:55;;;;;;;11.40;2.70;;;;;;;16.10;67.16;101289.19;5065569;28;20055;-92
2022/05/25 05:25:42;;;;;;;7.80;2.77;;;;;;;16.31;68.64;101302.53;5058535;28;20033;-95
2022/05/25 05:28:11;;;;;;;6.82;2.70;;;;;;;16.57;67.35;101296.88;5036942;28;20255;-90
2022/05/25 05:30:46;;;;;;;8.50;2.88;;;;;;;16.72;66.82;101295.88;5051975;28;20074;-88
2022/05/25 05:33:11;;;;;;;5.38;2.58;;;;;;;16.72;65.41;101299.41;5052820;28;20037;-88
2022/05/25 05:35:37;;;;;;;7.37;3.10;;;;;;;16.69;64.68;101294.56;5033419;28;20018;-89
2022/05/25 05:38:02;;;;;;;9.37;2.90;;;;;;;16.37;66.00;101300.56;5049391;28;20017;-90
2022/05/25 05:40:31;;;;;;;6.47;2.80;;;;;;;16.15;66.11;101288.34;5067997;28;20197;-89
2022/05/25 05:42:59;;;;;;;6.82;3.00;;;;;;;15.93;67.78;101272.59;5031652;28;20025;-88
2022/05/25 05:45:27;;;;;;;9.57;3.35;;;;;;;15.76;67.41;101284.56;5034265;28;20025;-88
2022/05/25 05:48:08;;;;;;;10.05;3.63;;;;;;;15.67;68.96;101280.88;5034742;28;20082;-87
2022/05/25 05:50:38;;;;;;;9.13;3.30;;;;;;;15.39;70.88;101288.59;5053323;28;20104;-88
2022/05/25 05:53:05;;;;;;;10.90;3.15;;;;;;;15.39;71.46;101275.09;5036747;28;20099;-89
2022/05/25 05:55:32;;;;;;;6.65;3.40;;;;;;;15.14;71.88;101287.66;5036484;28;20057;-86
2022/05/25 05:57:57;;;;;;;10.05;3.40;;;;;;;14.88;71.88;101276.97;5056716;28;20053;-94
2022/05/25 06:00:22;;;;;;;7.83;3.33;;;;;;;14.63;74.61;101285.94;5049514;28;20171;-91
2022/05/25 06:02:51;;;;;;;10.97;3.57;;;;;;;14.34;75.08;101283.81;5048369;28;20037;-92
2022/05/25 06:05:16;;;;;;;6.60;3.83;;;;;;;14.12;76.13;101290.31;5049669;28;20032;-91
2022/05/25 06:07:44;;;;;;;8.85;3.40;;;;;;;13.88;77.70;101288.16;5018265;28;20037;-91
2022/05/25 06:10:10;;;;;;;11.37;3.53;;;;;;;13.63;78.44;101283.56;5013502;28;20034;-92
2022/05/25 06:12:38;;;;;;;8.73;4.05;;;;;;;13.43;80.59;101292.38;5013494;28;20037;-92
2022/05/25 06:20:39;;;;;;;13.95;4.22;;;;;;;13.00;83.17;101304.06;5019925;28;20084;-88
2022/05/25 06:23:04;;;;;;;9.97;4.37;;;;;;;13.02;84.10;101299.25;5012722;28;20049;-88
2022/05/25 06:25:29;;;;;;;13.83;4.00;;;;;;;13.05;83.56;101314.03;4999262;28;20025;-93
2022/05/25 06:27:56;;;;;;;8.77;4.33;;;;;;;13.09;82.91;101317.84;5013303;28;20037;-91
2022/05/25 06:30:24;;;;;;;14.13;4.18;;;;;;;13.11;82.81;101315.69;4995036;28;20025;-88
2022/05/25 06:32:50;;;;;;;13.90;4.40;;;;;;;13.15;83.05;101316.75;5045087;28;20112;-89
2022/05/25 06:35:16;;;;;;;9.43;4.13;;;;;;;13.18;82.51;101312.75;5033382;28;20102;-91
2022/05/25 06:37:41;;;;;;;8.30;4.70;;;;;;;13.18;82.72;101318.13;5023558;28;20563;-90
2022/05/25 06:40:07;;;;;;;8.00;4.93;;;;;;;13.36;83.08;101319.53;5025292;28;20033;-89
2022/05/25 06:42:32;;;;;;;9.48;4.45;;;;;;;13.42;84.06;101317.72;5030649;28;20028;-86
2022/05/25 06:44:58;;;;;;;12.37;5.23;;;;;;;13.57;83.41;101330.38;5025495;28;20477;-89
2022/05/25 06:47:24;;;;;;;11.03;5.27;;;;;;;13.75;81.66;101331.78;5030089;28;20034;-90
2022/05/25 06:49:54;;;;;;;14.43;6.07;;;;;;;14.03;82.25;101337.72;5022976;28;20030;-91
2022/05/25 06:52:20;;;;;;;12.15;6.15;;;;;;;14.23;80.73;101337.75;5018503;28;20025;-89
2022/05/25 06:54:46;;;;;;;11.60;6.78;;;;;;;14.17;77.97;101327.22;5023521;28;20036;-89
2022/05/25 06:57:11;;;;;;;20.93;8.27;;;;;;;14.34;78.54;101329.63;5020314;28;20029;-88
2022/05/25 06:59:36;;;;;;;12.93;8.23;;;;;;;14.56;78.01;101334.75;5023444;28;20470;-87
2022/05/25 07:02:02;;;;;;;10.77;7.27;;;;;;;14.76;77.21;101339.31;5019499;28;20061;-87
2022/05/25 07:04:27;;;;;;;10.80;7.10;;;;;;;14.84;76.42;101346.88;5028861;28;20037;-90
2022/05/25 07:06:54;;;;;;;11.67;7.30;;;;;;;15.06;76.56;101344.91;5026397;28;20036;-91
2022/05/25 07:09:19;;;;;;;11.38;6.57;;;;;;;15.47;75.77;101352.00;5034554;28;20070;-92
2022/05/25 07:11:50;;;;;;;10.07;6.37;;;;;;;15.77;73.82;101361.03;5041508;28;20108;-90
2022/05/25 07:14:15;;;;;;;10.98;5.65;;;;;;;16.06;72.94;101358.44;5016283;28;20030;-91
2022/05/25 07:16:41;;;;;;;15.60;6.03;;;;;;;16.10;70.98;101361.38;5025651;28;20538;-89
2022/05/25 07:19:06;;;;;;;11.07;5.53;;;;;;;16.09;71.96;101357.84;5014407;28;20033;-90
2022/05/25 07:21:31;;;;;;;9.23;5.10;;;;;;;16.31;71.97;101368.25;5022820;28;20044;-90
2022/05/25 07:23:58;;;;;;;9.93;5.60;;;;;;;16.50;71.40;101362.94;5009952;28;20108;-90
2022/05/25 07:26:25;;;;;;;9.33;5.23;;;;;;;16.57;70.30;101378.03;5021076;28;20029;-90
2022/05/25 07:28:52;;;;;;;8.27;4.82;;;;;;;16.61;69.56;101373.66;5030572;28;20044;-88
2022/05/25 07:31:24;;;;;;;10.38;5.55;;;;;;;17.01;70.02;101378.97;5030372;28;20079;-88
2022/05/25 07:34:05;;;;;;;8.80;5.28;;;;;;;17.14;68.80;101385.59;5031721;28;20033;-88
2022/05/25 07:36:31;;;;;;;9.18;4.68;;;;;;;17.22;68.02;101384.94;5027443;28;20032;-88
2022/05/25 07:38:59;;;;;;;13.98;5.15;;;;;;;16.87;66.89;101384.22;5019508;28;20029;-90
2022/05/25 07:41:25;;;;;;;10.43;5.50;;;;;;;16.59;68.98;101370.44;5021821;28;20064;-90
2022/05/25 07:43:57;;;;;;;10.65;5.30;;;;;;;16.46;69.74;101374.59;5030771;28;20025;-89
2022/05/25 07:46:24;;;;;;;7.13;5.33;;;;;;;16.36;68.84;101372.78;5021128;28;20080;-88
2022/05/25 07:48:49;;;;;;;7.53;5.10;;;;;;;16.25;69.76;101372.06;5017556;28;20288;-89
2022/05/25 07:51:14;;;;;;;7.68;5.13;;;;;;;16.14;69.75;101382.16;5027951;28;20022;-89
2022/05/25 07:53:58;;;;;;;7.23;4.77;;;;;;;16.05;69.03;101383.84;5018429;28;20033;-89
2022/05/25 07:56:26;;;;;;;8.55;4.95;;;;;;;16.13;69.63;101385.16;5019894;28;20040;-89
2022/05/25 07:58:52;;;;;;;10.33;4.90;;;;;;;16.30;70.59;101379.31;5012568;28;20029;-88
2022/05/25 08:05:43;;;;;;;8.43;5.23;;;;;;;16.37;69.24;101379.81;5013065;28;21120;-90
2022/05/25 08:06:55;;;;;;;7.87;4.43;;;;;;;16.78;68.55;101387.56;5030386;28;20040;-91
2022/05/25 08:09:21;;;;;;;9.90;4.00;;;;;;;17.08;69.76;101393.75;5025592;28;20300;-90
2022/05/25 08:11:46;;;;;;;10.57;4.20;;;;;;;17.32;68.33;101395.66;5014909;28;20087;-89
2022/05/25 08:14:13;;;;;;;10.90;4.10;;;;;;;17.45;67.35;101401.47;5024502;28;20031;-90
2022/05/25 08:16:38;;;;;;;11.50;3.60;;;;;;;17.62;66.09;101404.50;5033446;28;20029;-91
2022/05/25 08:19:03;;;;;;;10.13;3.47;;;;;;;17.62;65.18;101404.50;5015858;28;20029;-91
2022/05/25 08:21:28;;;;;;;8.85;3.95;;;;;;;17.58;65.36;101405.38;5030178;28;20083;-91
2022/05/25 08:23:54;;;;;;;7.27;3.63;;;;;;;17.38;65.27;101399.91;5030589;28;20032;-90
2022/05/25 08:26:19;;;;;;;6.77;3.60;;;;;;;17.31;65.19;101393.22;5022661;28;20068;-90
2022/05/25 08:28:44;;;;;;;9.50;3.67;;;;;;;17.07;67.29;101394.84;5026639;28;20045;-91
2022/05/25 08:31:09;;;;;;;6.83;3.87;;;;;;;16.84;68.17;101390.19;5041479;28;20037;-91
2022/05/25 08:33:35;;;;;;;7.60;3.53;;;;;;;16.67;67.58;101393.34;5036916;28;20083;-92
2022/05/25 08:36:00;;;;;;;10.03;3.93;;;;;;;16.75;68.01;101380.00;5031844;28;20500;-90
2022/05/25 08:38:26;;;;;;;7.40;3.17;;;;;;;16.99;67.33;101386.56;5029961;28;20033;-92
2022/05/25 08:40:54;;;;;;;8.30;3.20;;;;;;;17.45;67.54;101390.63;5031198;28;20393;-90
2022/05/25 08:43:24;;;;;;;6.05;3.10;;;;;;;17.63;65.52;101391.72;5014873;28;20030;-87
2022/05/25 08:45:58;;;;;;;6.07;2.75;;;;;;;17.84;63.84;101389.56;5015148;28;20026;-88
2022/05/25 08:48:25;;;;;;;4.55;3.03;;;;;;;18.00;63.91;101385.53;5039894;28;20029;-88
2022/05/25 08:50:59;;;;;;;6.40;2.92;;;;;;;18.06;63.40;101378.13;5049658;28;20074;-87
2022/05/25 08:53:25;;;;;;;5.32;3.03;;;;;;;18.09;61.91;101376.72;5050725;28;20029;-87
2022/05/25 08:56:04;;;;;;;7.00;2.73;;;;;;;18.12;62.39;101360.69;5091476;22;20049;-89
2022/05/25 08:59:16;;;;;;;7.07;2.67;;;;;;;18.39;62.33;101383.56;5025924;28;20292;-84
2022/05/25 09:01:57;;;;;;;5.75;2.60;;;;;;;18.48;61.87;101367.41;5011072;28;20566;-85
2022/05/25 09:04:44;;;;;;;8.63;2.30;;;;;;;18.61;62.37;101379.41;5025829;28;20018;-87
2022/05/25 09:07:44;;;;;;;5.57;2.20;;;;;;;18.93;61.69;101380.44;4984745;28;20445;-87
2022/05/25 09:10:15;;;;;;;5.32;1.88;;;;;;;19.39;58.52;101384.16;5003149;28;20034;-87
2022/05/25 09:12:53;;;;;;;4.25;2.00;;;;;;;19.81;56.67;101386.81;5003146;28;20657;-89
2022/05/25 09:15:23;;;;;;;3.58;2.08;;;;;;;20.05;54.14;101388.44;4991893;28;20039;-89
2022/05/25 09:18:01;;;;;;;6.47;1.88;;;;;;;20.09;52.35;101392.16;5003130;28;20101;-84
2022/05/25 09:20:34;;;;;;;5.03;2.20;;;;;;;20.16;53.57;101383.56;5014197;28;20034;-85
2022/05/25 09:23:03;;;;;;;4.65;2.38;;;;;;;20.15;53.98;101387.38;5026396;28;20030;-94
2022/05/25 09:30:42;;;;;;;3.90;2.00;;;;;;;21.60;47.02;101406.94;5441167;22;20053;-84
2022/05/25 09:33:40;;;;;;;7.82;1.90;;;;;;;21.69;48.59;101401.50;5044231;28;20535;-83
2022/05/25 09:39:20;;;;;;;4.75;1.80;;;;;;;21.56;50.38;101405.94;5148100;22;20064;-84
2022/05/25 09:42:00;;;;;;;4.07;1.48;;;;;;;21.68;47.23;101393.66;5023731;28;20473;-84
2022/05/25 09:54:55;;;;;;;1.85;1.00;;;;;;;22.79;42.00;101394.94;5284717;22;1059502;-90
2022/05/25 09:57:42;;;;;;;5.00;1.08;;;;;;;22.76;43.85;101403.78;4998682;28;20397;-89
2022/05/25 10:00:23;;;;;;;1.80;0.80;;;;;;;22.73;43.33;101409.91;5014018;28;20053;-89
2022/05/25 10:02:52;;;;;;;3.58;0.95;;;;;;;22.46;41.84;101411.88;5018625;28;20096;-89
2022/05/25 10:10:56;;;;;;;4.78;0.90;;;;;;;21.41;42.89;101406.41;6187956;22;20030;-90
2022/05/25 10:23:22;;;;;;;2.93;0.80;;;;;;;22.14;42.34;101416.72;5074219;22;20379;-89
2022/05/25 10:25:55;;;;;;;4.53;0.85;;;;;;;21.92;41.09;101426.69;5032705;28;20040;-90
2022/05/25 10:28:24;;;;;;;1.55;0.80;;;;;;;21.99;42.51;101415.31;5030713;28;20480;-90
2022/05/25 10:37:14;;;;;;;2.72;0.70;;;;;;;22.14;41.77;101405.81;5032705;28;20405;-91
2022/05/25 10:39:58;;;;;;;4.68;0.80;;;;;;;22.19;42.67;101411.13;5018869;28;20061;-87
2022/05/25 10:42:29;;;;;;;2.42;0.75;;;;;;;22.46;41.10;101392.00;5029448;28;20061;-88
2022/05/25 10:45:11;;;;;;;3.88;0.73;;;;;;;22.34;39.29;101406.28;5031273;28;20104;-90
2022/05/25 10:47:49;;;;;;;2.07;0.67;;;;;;;22.10;39.86;101396.66;5032104;28;20025;-91
2022/05/25 10:50:52;;;;;;;4.37;0.90;;;;;;;22.01;40.32;101404.84;5013575;28;20668;-88
2022/05/25 11:02:15;;;;;;;2.85;0.90;;;;;;;21.14;42.49;101390.00;5002966;28;20105;-92
2022/05/25 11:05:30;;;;;;;4.40;0.80;;;;;;;20.95;44.29;101390.25;5013583;28;20026;-92
2022/05/25 11:18:50;;;;;;;1.40;0.70;;;;;;;20.52;43.09;101390.81;5023669;28;20520;-94
2022/05/25 11:21:51;;;;;;;3.03;0.90;;;;;;;20.35;43.34;101361.59;5037296;28;20389;-93
2022/05/25 11:53:37;;;;;;;3.72;0.90;;;;;;;23.50;38.13;101380.91;5067712;28;20056;-93
2022/05/25 11:56:05;;;;;;;2.78;1.00;;;;;;;23.61;37.00;101375.84;5041251;28;20055;-91
2022/05/25 13:41:01;;;;;;;;;;;;;;;;;;;;;
2022/05/25 14:12:12;;;;;;;4.53;0.90;;;;;;;23.52;36.01;101393.09;5212226;22;20437;-84
2022/05/25 14:21:43;;;;;;;2.88;0.85;;;;;;;23.60;36.28;101385.97;4991489;28;20532;-84
2022/05/25 14:27:14;;;;;;;;;;;;;;;;;;;;;
2022/05/25 14:29:52;;;;;;;2.83;1.02;;;;;;;22.18;36.51;101357.66;4967330;28;20522;-85
2022/05/25 14:32:40;;;;;;;2.53;0.70;;;;;;;21.94;38.09;101372.63;4972693;28;20027;-84
2022/05/25 14:35:18;;;;;;;4.60;0.90;;;;;;;21.94;37.83;101360.91;4973763;28;20058;-84
2022/05/25 14:37:44;;;;;;;3.87;0.90;;;;;;;22.10;37.34;101372.09;5036308;22;20320;-85
2022/05/25 14:41:02;;;;;;;3.42;0.73;;;;;;;21.81;37.15;101389.94;5029943;28;20132;-85
2022/05/25 14:43:46;;;;;;;5.72;0.98;;;;;;;20.89;38.76;101356.09;5020247;28;20046;-85
2022/05/25 14:50:11;;;;;;;3.70;1.00;;;;;;;20.47;41.17;101382.78;5016926;28;20404;-86
2022/05/25 14:53:24;;;;;;;3.88;0.80;;;;;;;20.55;41.09;101380.09;5013809;28;20087;-86
2022/05/25 14:55:54;;;;;;;4.32;1.05;;;;;;;20.58;40.19;101359.63;4983635;28;20034;-85
2022/05/25 15:08:31;;;;;;;2.33;0.80;;;;;;;21.12;41.00;101378.59;5037990;22;20057;-84
2022/05/25 15:11:36;;;;;;;7.00;0.90;;;;;;;21.81;40.65;101389.94;5030335;28;20037;-84
2022/05/25 15:19:51;;;;;;;7.20;0.80;;;;;;;21.67;38.58;101401.00;5009214;28;20324;-84
2022/05/25 15:22:24;;;;;;;2.45;0.90;;;;;;;21.45;40.33;101399.19;5010115;28;20026;-84
2022/05/25 15:25:11;;;;;;;4.05;0.80;;;;;;;21.42;40.17;101403.38;4989503;28;20556;-84
2022/05/25 15:28:02;;;;;;;10.18;1.10;;;;;;;21.57;40.96;101415.72;5006693;28;20056;-84
2022/05/25 15:30:41;;;;;;;4.38;0.85;;;;;;;21.65;40.23;101397.78;5005666;28;20136;-85
2022/05/25 15:33:08;;;;;;;2.03;0.70;;;;;;;21.57;39.59;101393.91;5002381;28;20489;-86
2022/05/25 15:35:38;;;;;;;2.75;0.90;;;;;;;21.49;39.63;101381.09;4992878;28;20118;-85
2022/05/25 15:42:20;;;;;;;4.25;0.80;;;;;;;20.59;40.48;101415.69;5026745;28;20051;-85
2022/05/25 15:48:13;;;;;;;7.97;0.80;;;;;;;19.51;41.43;101408.91;5052479;22;20326;-88
2022/05/25 15:50:41;;;;;;;5.65;1.10;;;;;;;19.30;42.15;101413.16;5030314;28;20104;-89
2022/05/25 15:53:08;;;;;;;7.35;0.60;;;;;;;19.05;43.06;101412.56;5027097;28;20072;-88
2022/05/25 15:55:34;;;;;;;7.05;1.10;;;;;;;18.89;43.70;101412.81;5029866;28;20032;-91
2022/05/25 15:58:00;;;;;;;4.40;0.90;;;;;;;18.73;44.06;101414.19;5013233;28;20025;-89
2022/05/25 16:00:26;;;;;;;4.50;0.87;;;;;;;18.62;44.76;101413.56;5011332;28;20040;-91
2022/05/25 16:02:56;;;;;;;4.32;0.98;;;;;;;18.55;45.16;101419.38;4992984;28;20026;-90
2022/05/25 16:05:24;;;;;;;5.15;0.80;;;;;;;18.70;44.56;101412.06;5011312;28;20087;-90
2022/05/25 16:10:35;;;;;;;5.43;0.80;;;;;;;18.83;44.78;101414.00;5009896;28;20076;-90
2022/05/25 16:13:01;;;;;;;6.80;0.80;;;;;;;18.85;44.06;101417.22;5012450;28;20034;-91
2022/05/25 16:15:28;;;;;;;7.38;0.80;;;;;;;18.88;44.11;101413.91;5012022;28;20535;-93
2022/05/25 16:17:53;;;;;;;3.60;0.80;;;;;;;18.81;44.59;101427.06;5017834;28;20449;-94